ADDS METAR Data INFO
IDs: Format: Raw Decoded Include TAF

Data at: 0949 UTC 25 Jun 2018

KHQI 250935Z AUTO 14009G16KT 100V170 8SM FEW019 FEW025 FEW031 28/28 A2999 RMK A01
KHQI 250915Z AUTO 14010G17KT 110V170 8SM FEW019 SCT026 SCT030 28/28 A2998 RMK A01
KHQI 250855Z AUTO 14012G22KT 8SM CLR 28/28 A2998 RMK A01
KHQI 250835Z AUTO 14010G19KT 090V170 7SM CLR 28/28 A2998 RMK A01
KHQI 250815Z AUTO 14012G22KT 7SM CLR 28/28 A2998 RMK A01
KHQI 250755Z AUTO 12017G22KT 7SM FEW019 FEW044 28/28 A2998 RMK A01
KHQI 250735Z AUTO 13017KT 7SM FEW045 28/28 A2999 RMK A01
KHQI 250715Z AUTO 13014G23KT 7SM CLR 28/28 A2999 RMK A01
KHQI 250655Z AUTO 12017KT 7SM FEW019 28/28 A2999 RMK A01
KHQI 250635Z AUTO 12015G22KT 7SM FEW026 FEW031 SCT048 28/28 A2998 RMK A01
KHQI 250615Z AUTO 12020KT 6SM BR FEW020 SCT026 BKN048 28/28 A2999 RMK A01
KHQI 250555Z AUTO 12019KT 7SM FEW019 FEW025 SCT040 28/28 A2999 RMK A01
KHQI 250535Z AUTO 12017KT 6SM BR FEW016 FEW023 FEW034 29/29 A3000 RMK A01
KHQI 250515Z AUTO 12017G22KT 6SM BR FEW018 SCT025 SCT035 28/28 A2999 RMK A01
KHQI 250455Z AUTO 12015G21KT 6SM BR SCT019 SCT024 SCT029 29/29 A2998 RMK A01
KHQI 250435Z AUTO 13017G23KT 6SM BR FEW021 FEW027 SCT033 29/29 A2998 RMK A01
KHQI 250415Z AUTO 12018KT 6SM BR FEW019 SCT024 BKN034 29/28 A2998 RMK A01
KHQI 250355Z AUTO 12016G23KT 7SM FEW019 SCT024 29/29 A2998 RMK A01
KHQI 250335Z AUTO 11017G22KT 6SM BR SCT018 SCT025 BKN029 29/29 A2996 RMK A01
KHQI 250315Z AUTO 11018KT 6SM BR SCT020 BKN025 BKN029 28/28 A2996 RMK A01
KHQI 250255Z AUTO 12017KT 6SM BR SCT020 BKN027 28/28 A2995 RMK A01
KHQI 250235Z AUTO 11020KT 6SM BR FEW021 28/28 A2993 RMK A01
KHQI 250215Z AUTO 12018G23KT 6SM BR FEW021 28/28 A2993 RMK A01
KHQI 250155Z AUTO 12020KT 6SM BR FEW019 SCT028 28/28 A2992 RMK A01
KHQI 250135Z AUTO 12018KT 6SM BR FEW018 FEW030 28/28 A2992 RMK A01
KHQI 250115Z AUTO 12014KT 6SM BR FEW019 28/28 A2993 RMK A01
KHQI 250055Z AUTO 12012KT 6SM BR BKN019 28/28 A2993 RMK A01
KHQI 250035Z AUTO 11013KT 6SM BR FEW016 FEW021 28/28 A2993 RMK A01
KHQI 250015Z AUTO 12013KT 7SM CLR 28/28 A2993 RMK A01
KHQI 242355Z AUTO 12012KT 6SM BR CLR 28/28 A2993 RMK A01
KHQI 242335Z AUTO 13011KT 8SM CLR 28/28 A2993 RMK A01
KHQI 242315Z AUTO 14008G17KT 110V180 8SM CLR 28/28 A2994 RMK A01
KHQI 242255Z AUTO 13011KT 9SM CLR 28/28 A2994 RMK A01
KHQI 242235Z AUTO 13010KT 9SM CLR 29/28 A2994 RMK A01
KHQI 242215Z AUTO 14007KT 9SM CLR 29/28 A2995 RMK A01
KHQI 242155Z AUTO 15010KT 9SM CLR 29/28 A2995 RMK A01
KHQI 242135Z AUTO 15011KT 9SM CLR 29/28 A2995 RMK A01
KHQI 242115Z AUTO 15012KT 10SM CLR 29/28 A2995 RMK A01
KHQI 242055Z AUTO 15012KT 10SM CLR 29/27 A2995 RMK A01
KHQI 242035Z AUTO 15015KT 10SM CLR 29/27 A2996 RMK A01
KHQI 242015Z AUTO 15015KT 9SM CLR 29/28 A2995 RMK A01
KHQI 241955Z AUTO 15015KT 9SM CLR 29/28 A2996 RMK A01
KHQI 241935Z AUTO 14013G21KT 10SM FEW019 29/28 A2996 RMK A01
KHQI 241915Z AUTO 15020KT 9SM FEW019 29/29 A2996 RMK A01
KHQI 241855Z AUTO 15019KT 9SM CLR 29/29 A2997 RMK A01
KHQI 241835Z AUTO 15018KT 9SM CLR 29/29 A2997 RMK A01
KHQI 241815Z AUTO 14013KT 9SM FEW018 29/29 A2998 RMK A01
KHQI 241755Z AUTO 15020KT 10SM CLR 29/29 A2998 RMK A01
KHQI 241735Z AUTO 15014G21KT 9SM CLR 29/29 A2997 RMK A01
KHQI 241715Z AUTO 15015G22KT 9SM FEW018 29/29 A2997 RMK A01
KHQI 241655Z AUTO 15016G24KT 9SM CLR 29/29 A2996 RMK A01
KHQI 241635Z AUTO 14016G23KT 10SM CLR 29/29 A2996 RMK A01
KHQI 241615Z AUTO 14016G25KT 10SM CLR 29/28 A2996 RMK A01
KHQI 241555Z AUTO 15021KT 10SM FEW021 29/29 A2995 RMK A01
KHQI 241535Z AUTO 15017G24KT 9SM FEW020 29/29 A2995 RMK A01
KHQI 241515Z AUTO 15019G25KT 10SM CLR 29/29 A2994 RMK A01
KHQI 241455Z AUTO 15017G25KT 10SM CLR 29/29 A2994 RMK A01
KHQI 241435Z AUTO 14013G22KT 10SM CLR 29/29 A2993 RMK A01
KHQI 241415Z AUTO 14014G20KT 10SM CLR 29/29 A2993 RMK A01
KHQI 241355Z AUTO 15019G24KT 9SM CLR 29/29 A2992 RMK A01
KHQI 241335Z AUTO 15017G22KT 9SM FEW017 29/28 A2993 RMK A01
KHQI 241315Z AUTO 15020KT 9SM CLR 29/28 A2993 RMK A01
KHQI 241255Z AUTO 15019KT 9SM FEW017 28/28 A2992 RMK A01
KHQI 241235Z AUTO 15015G21KT 9SM CLR 28/28 A2993 RMK A01
KHQI 241215Z AUTO 15017G22KT 130V200 8SM FEW018 FEW024 FEW032 28/28 A2993 RMK A01
KHQI 241155Z AUTO 15018KT 8SM BKN016 BKN020 BKN025 28/28 A2992 RMK A01
KHQI 241135Z AUTO 15015KT 8SM BKN016 BKN023 OVC028 28/28 A2993 RMK A01
KHQI 241115Z AUTO 16007G18KT 120V210 9SM BKN017 BKN022 BKN026 28/28 A2993 RMK A01
KHQI 241055Z AUTO 16010G17KT 130V200 8SM SCT017 BKN023 28/28 A2993 RMK A01
KHQI 241035Z AUTO VRB05G19KT 8SM BKN018 BKN025 BKN030 28/28 A2993 RMK A01
KHQI 241015Z AUTO VRB03G13KT 8SM SCT018 BKN023 BKN030 28/28 A2992 RMK A01
KHQI 240955Z AUTO VRB04G18KT 9SM FEW019 FEW026 FEW034 28/28 A2992 RMK A01
KHQI 240935Z AUTO VRB11G16KT 130V260 9SM FEW027 28/28 A2993 RMK A01
KHQI 240915Z AUTO VRB06G19KT 090V260 9SM CLR 28/28 A2993 RMK A01
KHQI 240855Z AUTO 17008G19KT 110V240 9SM FEW021 28/28 A2993 RMK A01
KHQI 240835Z AUTO 17011G22KT 140V290 9SM SCT021 SCT026 28/28 A2992 RMK A01
KHQI 240815Z AUTO 16013G25KT 130V220 9SM FEW020 28/28 A2993 RMK A01
KHQI 240755Z AUTO 15021G26KT 9SM CLR 28/28 A2992 RMK A01
KHQI 240735Z AUTO 15024KT 9SM FEW018 FEW024 28/28 A2992 RMK A01
KHQI 240715Z AUTO 15024KT 9SM SCT017 SCT023 28/28 A2992 RMK A01
KHQI 240655Z AUTO 15020G26KT 8SM SCT017 SCT021 28/28 A2991 RMK A01
KHQI 240635Z AUTO 15019G28KT 9SM FEW017 28/28 A2991 RMK A01
KHQI 240615Z AUTO 15023G28KT 9SM SCT014 28/28 A2990 RMK A01
KHQI 240555Z AUTO 15020G27KT 8SM BKN014 28/28 A2990 RMK A01
KHQI 240535Z AUTO 15018G26KT 8SM SCT015 SCT021 SCT031 28/28 A2990 RMK A01
KHQI 240515Z AUTO 14014G22KT 8SM BKN016 BKN021 BKN031 28/28 A2990 RMK A01
KHQI 240455Z AUTO 15012G23KT 130V210 8SM SCT015 SCT020 28/28 A2991 RMK A01
KHQI 240435Z AUTO 14013G21KT 7SM BKN014 28/28 A2991 RMK A01
KHQI 240415Z AUTO 13013G21KT 8SM FEW015 28/28 A2991 RMK A01
KHQI 240355Z AUTO 13014G22KT 9SM SCT015 28/28 A2991 RMK A01
KHQI 240335Z AUTO 13014G21KT 9SM FEW016 28/28 A2991 RMK A01
KHQI 240315Z AUTO 13013G20KT 9SM CLR 28/28 A2991 RMK A01
KHQI 240255Z AUTO 13016KT 9SM FEW016 28/28 A2990 RMK A01
KHQI 240235Z AUTO 14010G19KT 10SM CLR 28/28 A2989 RMK A01
KHQI 240215Z AUTO 13011G19KT 9SM FEW018 28/28 A2988 RMK A01
KHQI 240155Z AUTO 13014KT 10SM CLR 28/28 A2988 RMK A01
KHQI 240135Z AUTO 13012KT 10SM CLR 28/28 A2988 RMK A01
KHQI 240115Z AUTO 13012KT 10SM CLR 28/28 A2987 RMK A01
KHQI 240055Z AUTO 13010G19KT 10SM CLR 28/28 A2987 RMK A01
KHQI 240035Z AUTO 13013KT 110V170 10SM CLR 28/28 A2987 RMK A01
KHQI 240015Z AUTO 13011KT 10SM CLR 29/28 A2988 RMK A01
KHQI 232355Z AUTO 13009KT 10SM CLR 29/28 A2987 RMK A01
KHQI 232335Z AUTO 13010KT 10SM FEW017 29/28 A2988 RMK A01
KHQI 232315Z AUTO 14007KT 100V170 10SM FEW017 29/28 A2988 RMK A01
KHQI 232255Z AUTO 14008G13KT 080V160 10SM CLR 29/28 A2988 RMK A01
KHQI 232235Z AUTO 15008KT 140V200 10SM CLR 29/28 A2989 RMK A01
KHQI 232215Z AUTO 15009KT 130V220 10SM CLR 29/28 A2989 RMK A01
KHQI 232155Z AUTO 15008KT 10SM CLR 30/28 A2990 RMK A01